Time;durP1;ratioP1;P1;durP2;ratioP2;P2;SDS_P1;SDS_P2;PMS_P1;PMS_P2;Temp;Humidity;BMP_temperature;BMP_pressure;BME280_temperature;BME280_humidity;BME280_pressure;Samples;Min_cycle;Max_cycle;Signal;HPM_P1;HPM_P2
2022/02/02 10:10:16;;;;;;;7.47;4.18;;;9.50;93.30;;;;;;5083593;28;20036;-55
2022/02/02 10:15:55;;;;;;;7.00;3.88;;;9.80;92.60;;;;;;5059907;28;20404;-57
2022/02/02 10:18:23;;;;;;;5.43;3.58;;;9.90;92.30;;;;;;5075954;28;20037;-56
2022/02/02 10:20:50;;;;;;;6.20;3.40;;;10.00;92.10;;;;;;5071069;28;20114;-57
2022/02/02 10:23:18;;;;;;;4.40;3.00;;;10.10;91.80;;;;;;5069913;28;20048;-54
2022/02/02 10:25:47;;;;;;;5.85;3.33;;;10.10;91.80;;;;;;5070139;28;20376;-61
2022/02/02 10:28:14;;;;;;;4.93;2.60;;;10.20;91.60;;;;;;5085271;28;20048;-57
2022/02/02 10:30:41;;;;;;;5.47;2.70;;;10.20;91.30;;;;;;5068445;28;20504;-55
2022/02/02 10:33:08;;;;;;;6.00;2.88;;;10.30;91.30;;;;;;5069886;28;20044;-62
2022/02/02 10:35:36;;;;;;;4.05;2.58;;;10.40;91.30;;;;;;5069729;28;20068;-58
2022/02/02 10:38:19;;;;;;;5.03;2.72;;;10.50;91.00;;;;;;5069946;28;20124;-55
2022/02/02 10:41:01;;;;;;;3.67;2.35;;;10.50;90.80;;;;;;5069885;28;20044;-57
2022/02/02 10:43:33;;;;;;;5.70;2.38;;;10.60;90.60;;;;;;5079101;28;20065;-57
2022/02/02 10:46:00;;;;;;;4.00;2.40;;;10.80;90.50;;;;;;5077921;28;20032;-63
2022/02/02 10:48:42;;;;;;;5.78;1.90;;;10.90;90.00;;;;;;5089186;28;20116;-59
2022/02/02 10:51:21;;;;;;;4.60;2.22;;;11.00;90.00;;;;;;5074845;28;20429;-57
2022/02/02 10:54:04;;;;;;;4.15;1.70;;;11.10;89.30;;;;;;5073739;28;20511;-63
2022/02/02 10:56:46;;;;;;;5.03;2.05;;;11.20;89.00;;;;;;5081709;28;20131;-60
2022/02/02 10:59:29;;;;;;;5.05;2.00;;;11.20;88.40;;;;;;5087613;28;20090;-61
2022/02/02 11:07:09;;;;;;;2.78;1.10;;;11.10;87.70;;;;;;5089388;28;20048;-56
2022/02/02 11:09:36;;;;;;;2.95;1.23;;;11.10;88.30;;;;;;5089842;28;20051;-61
2022/02/02 11:12:03;;;;;;;3.25;1.20;;;11.10;88.10;;;;;;5089565;28;20096;-56
2022/02/02 11:14:29;;;;;;;2.10;1.02;;;11.30;88.20;;;;;;5086270;28;20036;-58
2022/02/02 11:16:56;;;;;;;3.67;1.02;;;11.40;86.60;;;;;;5073575;28;20064;-59
2022/02/02 11:19:24;;;;;;;3.03;0.90;;;11.40;86.20;;;;;;5056468;28;20041;-55
2022/02/02 11:21:50;;;;;;;2.88;1.08;;;11.50;85.80;;;;;;5062172;28;20052;-56
2022/02/02 11:24:36;;;;;;;3.15;0.90;;;11.50;86.00;;;;;;5075169;28;20491;-62
2022/02/02 11:27:03;;;;;;;5.60;1.60;;;11.40;85.90;;;;;;5074740;28;20040;-53
2022/02/02 11:29:30;;;;;;;2.10;1.00;;;11.30;86.10;;;;;;5074614;28;20465;-62
2022/02/02 11:31:56;;;;;;;4.55;1.40;;;11.30;86.30;;;;;;5074385;28;20040;-61
2022/02/02 11:34:24;;;;;;;4.72;1.73;;;11.20;86.50;;;;;;5061753;28;20075;-62
2022/02/02 11:36:52;;;;;;;2.92;1.20;;;11.20;86.50;;;;;;5058120;28;20049;-58
2022/02/02 11:39:19;;;;;;;4.68;1.20;;;11.20;86.70;;;;;;5055154;28;20132;-54
2022/02/02 11:41:53;;;;;;;2.55;1.05;;;11.20;87.00;;;;;;5055160;28;20037;-53
2022/02/02 11:44:25;;;;;;;4.63;1.10;;;11.20;86.50;;;;;;5067213;28;20443;-57
2022/02/02 11:49:36;;;;;;;4.43;1.30;;;11.20;86.60;;;;;;5074475;28;20049;-53
2022/02/02 11:52:03;;;;;;;2.40;1.35;;;11.10;87.00;;;;;;5058719;28;20044;-57
2022/02/02 11:54:30;;;;;;;4.60;1.20;;;11.10;87.30;;;;;;5067289;28;20041;-53
2022/02/02 11:56:57;;;;;;;2.38;1.15;;;11.10;87.40;;;;;;5054804;28;20040;-56
2022/02/02 11:59:24;;;;;;;4.50;1.60;;;11.20;87.10;;;;;;5054919;28;20546;-59
2022/02/02 12:01:51;;;;;;;3.25;1.50;;;11.30;87.00;;;;;;5054914;28;20048;-54
2022/02/02 12:04:38;;;;;;;3.80;1.30;;;11.30;86.70;;;;;;5054722;28;20053;-59
2022/02/02 12:07:13;;;;;;;4.63;1.20;;;11.30;86.50;;;;;;5054705;28;20106;-58
2022/02/02 12:09:46;;;;;;;3.90;1.30;;;11.40;86.60;;;;;;5055081;28;20548;-56
2022/02/02 12:53:34;;;;;;;1.73;1.08;;;11.50;85.30;;;;;;5039253;28;20437;-55
2022/02/02 12:58:49;;;;;;;3.15;1.10;;;11.50;85.00;;;;;;5072852;28;20036;-59
2022/02/02 13:01:16;;;;;;;2.08;1.17;;;11.60;85.20;;;;;;5072619;28;20495;-62
2022/02/02 13:03:43;;;;;;;5.18;1.20;;;11.60;84.70;;;;;;5071784;28;20051;-60
2022/02/02 13:06:10;;;;;;;5.80;1.10;;;11.60;84.90;;;;;;5071222;28;20064;-58
2022/02/02 13:08:37;;;;;;;3.58;1.45;;;11.60;84.70;;;;;;5072720;28;20037;-62
2022/02/02 13:11:04;;;;;;;3.25;1.10;;;11.70;84.40;;;;;;5055092;28;20111;-61
2022/02/02 13:13:31;;;;;;;3.25;0.90;;;11.70;84.50;;;;;;5053530;28;20463;-60
2022/02/02 13:15:59;;;;;;;4.28;1.30;;;11.70;84.30;;;;;;5070453;28;20041;-54
2022/02/02 13:18:36;;;;;;;2.60;1.10;;;11.80;84.40;;;;;;5072546;28;20543;-58
2022/02/02 13:21:17;;;;;;;5.60;1.40;;;11.80;83.80;;;;;;5072504;28;20066;-61
2022/02/02 13:26:25;;;;;;;3.50;1.30;;;11.90;83.50;;;;;;5072747;28;20456;-57
2022/02/02 13:29:06;;;;;;;4.30;1.30;;;11.90;83.80;;;;;;5072472;28;20047;-61
2022/02/02 13:31:48;;;;;;;4.80;1.13;;;12.00;83.70;;;;;;5072758;28;20040;-58
2022/02/02 13:37:25;;;;;;;3.63;1.27;;;11.90;83.50;;;;;;5055374;28;20508;-61
2022/02/02 13:53:20;;;;;;;3.33;1.20;;;12.00;84.00;;;;;;5059166;28;20559;-61
2022/02/02 13:56:04;;;;;;;2.35;1.10;;;12.00;82.80;;;;;;5072055;28;20040;-57
2022/02/02 13:58:41;;;;;;;3.83;1.30;;;12.10;83.60;;;;;;5067549;28;20073;-57
2022/02/02 14:01:17;;;;;;;5.57;1.30;;;12.20;82.60;;;;;;5058675;28;20040;-60
2022/02/02 14:26:06;;;;;;;3.05;1.33;;;12.10;82.40;;;;;;5071669;28;20065;-56
2022/02/02 14:31:17;;;;;;;4.15;1.50;;;11.90;82.90;;;;;;5071589;28;20483;-59
2022/02/02 14:33:52;;;;;;;3.50;1.40;;;11.90;83.20;;;;;;5071324;28;20075;-53
2022/02/02 14:36:22;;;;;;;5.72;1.33;;;11.90;83.40;;;;;;5071577;28;20037;-58
2022/02/02 14:41:44;;;;;;;6.90;1.42;;;11.90;83.40;;;;;;5049786;28;20056;-58
2022/02/02 14:44:21;;;;;;;4.38;1.45;;;12.00;83.40;;;;;;5071434;28;20116;-62
2022/02/02 14:47:15;;;;;;;3.83;1.60;;;12.00;83.10;;;;;;5071575;28;20408;-55
2022/02/02 14:50:09;;;;;;;2.78;1.40;;;11.90;83.30;;;;;;5071300;28;20057;-61
2022/02/02 14:55:34;;;;;;;6.57;1.50;;;11.90;83.00;;;;;;5075083;28;20044;-58
2022/02/02 15:28:21;;;;;;;6.90;1.63;;;11.90;84.00;;;;;;5055549;28;20041;-62
2022/02/02 15:33:22;;;;;;;3.92;1.92;;;11.90;84.30;;;;;;5055424;28;20450;-56
2022/02/02 15:35:57;;;;;;;10.25;1.55;;;11.90;84.40;;;;;;5066662;28;20044;-58
2022/02/02 15:38:25;;;;;;;9.05;1.60;;;11.90;84.20;;;;;;5074302;28;20087;-62
2022/02/02 15:40:58;;;;;;;6.45;1.80;;;11.90;83.70;;;;;;5063396;28;20037;-59
2022/02/02 15:43:37;;;;;;;3.20;1.50;;;11.90;84.10;;;;;;5067021;28;20120;-56
2022/02/02 16:04:58;;;;;;;4.50;1.70;;;11.50;85.00;;;;;;5072650;28;20087;-59
2022/02/02 16:07:28;;;;;;;7.10;1.77;;;11.50;85.30;;;;;;5073583;28;20099;-54
2022/02/02 16:10:01;;;;;;;4.03;1.63;;;11.40;85.50;;;;;;5073673;28;20040;-55
2022/02/02 16:12:39;;;;;;;5.32;1.60;;;11.40;85.60;;;;;;5073714;28;20060;-62
2022/02/02 16:17:49;;;;;;;6.00;1.70;;;11.30;85.90;;;;;;5073614;28;20060;-57
2022/02/02 16:38:29;;;;;;;5.85;2.67;;;11.20;86.70;;;;;;5074590;28;20098;-61
2022/02/02 16:40:57;;;;;;;5.65;3.05;;;11.10;86.80;;;;;;5066082;28;20041;-59
2022/02/02 16:43:24;;;;;;;10.50;2.58;;;11.10;87.00;;;;;;5054145;28;20443;-60
2022/02/02 16:45:52;;;;;;;6.43;2.22;;;11.00;87.30;;;;;;5053910;28;20041;-53
2022/02/02 16:48:19;;;;;;;4.13;2.50;;;11.00;87.30;;;;;;5054237;28;20527;-58
2022/02/02 16:50:48;;;;;;;5.38;2.50;;;10.90;87.50;;;;;;5053673;28;20043;-54
2022/02/02 20:08:47;;;;;;;10.23;6.25;;;10.00;91.80;;;;;;5050474;28;20041;-55
2022/02/02 20:11:20;;;;;;;8.85;5.75;;;10.10;91.70;;;;;;5049751;28;20091;-58
2022/02/02 20:13:47;;;;;;;11.60;5.97;;;10.10;91.60;;;;;;5044167;28;20096;-57
2022/02/02 20:16:13;;;;;;;8.55;5.45;;;10.10;91.60;;;;;;5048737;28;20554;-59
2022/02/02 20:18:43;;;;;;;12.63;6.10;;;10.10;91.50;;;;;;5049119;28;20037;-61
2022/02/02 20:21:12;;;;;;;13.55;6.30;;;10.10;91.50;;;;;;5052165;28;20086;-56
2022/02/02 20:23:46;;;;;;;10.45;6.10;;;10.20;91.50;;;;;;5047602;28;20065;-57
2022/02/02 20:26:16;;;;;;;12.00;5.97;;;10.10;91.40;;;;;;5047455;28;20056;-55
2022/02/02 20:28:42;;;;;;;12.15;6.10;;;10.20;91.60;;;;;;5048722;28;20060;-59
2022/02/02 20:31:09;;;;;;;11.90;6.15;;;10.20;91.30;;;;;;5048650;28;20052;-54
2022/02/02 20:33:36;;;;;;;12.90;5.93;;;10.20;91.30;;;;;;5048362;28;20052;-53
2022/02/02 20:36:03;;;;;;;11.00;5.65;;;10.20;91.30;;;;;;5048034;28;20040;-60
2022/02/02 20:38:29;;;;;;;10.32;6.30;;;10.20;91.20;;;;;;5048445;28;20041;-57
2022/02/02 20:40:56;;;;;;;12.02;6.32;;;10.20;91.20;;;;;;5048497;28;20045;-61
2022/02/02 20:43:34;;;;;;;12.38;6.55;;;10.20;91.20;;;;;;5047117;28;20041;-58
2022/02/02 21:10:16;;;;;;;17.83;8.50;;;10.20;91.10;;;;;;5035056;28;20041;-58
2022/02/02 21:15:31;;;;;;;12.63;6.40;;;10.20;91.10;;;;;;5034503;28;20393;-59
2022/02/02 21:18:06;;;;;;;10.88;6.45;;;10.20;91.00;;;;;;5034408;28;20140;-57
2022/02/02 21:20:46;;;;;;;14.40;6.07;;;10.20;91.10;;;;;;5034815;28;20115;-62
2022/02/02 21:23:31;;;;;;;12.43;6.13;;;10.20;91.20;;;;;;5034579;28;20564;-53
2022/02/02 21:28:51;;;;;;;12.40;5.90;;;10.10;91.20;;;;;;5040740;28;20049;-57
2022/02/02 21:31:18;;;;;;;10.68;6.13;;;10.10;91.10;;;;;;5034315;28;20105;-54
2022/02/02 21:33:46;;;;;;;12.48;6.40;;;10.10;91.10;;;;;;5034097;28;20510;-50
2022/02/02 21:36:14;;;;;;;12.68;5.60;;;10.10;91.00;;;;;;5033891;28;20080;-58
2022/02/02 21:39:05;;;;;;;16.35;5.75;;;10.10;91.00;;;;;;5034435;28;20473;-52
2022/02/02 21:41:34;;;;;;;11.30;5.47;;;10.10;90.90;;;;;;5034568;28;20091;-60
2022/02/02 21:44:01;;;;;;;12.02;5.00;;;10.10;90.80;;;;;;5033521;28;20049;-58
2022/02/02 21:46:28;;;;;;;12.50;5.30;;;10.10;90.80;;;;;;5033008;28;20038;-53
2022/02/02 21:48:55;;;;;;;12.75;4.97;;;10.10;90.60;;;;;;5034301;28;20504;-56
2022/02/02 21:51:27;;;;;;;11.63;5.28;;;10.10;90.40;;;;;;5040079;28;20042;-60
2022/02/02 21:53:54;;;;;;;12.40;4.60;;;10.10;90.30;;;;;;5028509;28;20037;-57
2022/02/02 21:56:21;;;;;;;9.95;3.80;;;10.10;90.20;;;;;;5034275;28;20041;-56
2022/02/02 21:58:48;;;;;;;9.70;3.70;;;10.10;89.20;;;;;;5035960;28;20067;-59
2022/02/02 22:01:15;;;;;;;13.48;3.45;;;10.00;89.10;;;;;;5034514;28;20128;-52
2022/02/02 22:03:42;;;;;;;11.85;3.15;;;9.90;88.20;;;;;;5034370;28;20045;-54
2022/02/02 22:06:09;;;;;;;9.27;2.72;;;10.00;88.00;;;;;;5026721;28;20069;-53
2022/02/02 22:08:36;;;;;;;13.20;2.72;;;9.90;87.80;;;;;;5033492;28;20501;-60
2022/02/02 22:11:02;;;;;;;10.25;2.92;;;9.90;87.30;;;;;;5029852;28;20041;-59
2022/02/02 22:13:39;;;;;;;11.73;2.90;;;9.90;87.30;;;;;;5031869;28;20103;-61
2022/02/02 22:16:10;;;;;;;9.45;3.00;;;9.90;86.90;;;;;;5030983;28;20045;-57
2022/02/02 22:18:38;;;;;;;9.98;3.08;;;9.90;86.10;;;;;;5033765;28;20037;-60
2022/02/02 22:21:05;;;;;;;12.10;2.60;;;9.90;86.20;;;;;;5033804;28;20124;-60
2022/02/02 22:23:36;;;;;;;13.07;2.50;;;9.90;85.80;;;;;;5033771;28;20132;-58
2022/02/02 22:26:03;;;;;;;9.40;2.38;;;9.90;85.60;;;;;;5033687;28;20095;-62
2022/02/02 22:28:30;;;;;;;8.07;2.65;;;9.80;85.00;;;;;;5033494;28;20060;-62
2022/02/02 22:30:57;;;;;;;12.77;2.72;;;9.90;85.40;;;;;;5033308;28;20042;-57
2022/02/02 22:33:24;;;;;;;8.40;2.20;;;9.90;85.50;;;;;;5033129;28;20124;-54
